Time;durP1;ratioP1;P1;durP2;ratioP2;P2;SDS_P1;SDS_P2;PMS_P1;PMS_P2;Temp;Humidity;BMP_temperature;BMP_pressure;BME280_temperature;BME280_humidity;BME280_pressure;Samples;Min_cycle;Max_cycle;Signal;HPM_P1;HPM_P2
2022/04/16 00:02:07;;;;;;;13.35;10.75;;;;;;;12.74;49.85;102944.06;6312414;22;20015;-68
2022/04/16 00:04:34;;;;;;;13.48;10.63;;;;;;;12.72;49.70;102951.34;6312122;22;20018;-68
2022/04/16 00:07:00;;;;;;;13.60;11.00;;;;;;;12.70;49.66;102951.41;6339684;22;20014;-68
2022/04/16 00:09:27;;;;;;;14.98;11.35;;;;;;;12.68;49.74;102952.44;6339810;22;20011;-68
2022/04/16 00:11:57;;;;;;;14.60;11.32;;;;;;;12.65;49.69;102949.88;6339399;22;20460;-69
2022/04/16 00:14:24;;;;;;;13.80;11.40;;;;;;;12.59;49.99;102951.00;6339665;22;20345;-68
2022/04/16 00:16:51;;;;;;;14.95;11.23;;;;;;;12.57;49.82;102952.03;6311812;22;20097;-68
2022/04/16 00:19:18;;;;;;;13.50;11.27;;;;;;;12.53;49.93;102956.69;6338442;22;20337;-69
2022/04/16 00:21:45;;;;;;;13.27;11.32;;;;;;;12.50;50.05;102958.66;6339399;22;20014;-68
2022/04/16 00:24:12;;;;;;;13.52;11.55;;;;;;;12.46;50.13;102955.22;6339363;22;20015;-68
2022/04/16 00:26:41;;;;;;;19.58;11.18;;;;;;;12.41;50.03;102955.44;6339200;22;20085;-68
2022/04/16 00:29:08;;;;;;;16.30;11.77;;;;;;;12.39;50.14;102959.13;6339281;22;20341;-68
2022/04/16 00:31:47;;;;;;;14.15;11.00;;;;;;;12.36;50.38;102956.56;6338564;22;20050;-68
2022/04/16 00:34:14;;;;;;;14.23;11.88;;;;;;;12.33;50.28;102956.72;6339483;22;20353;-68
2022/04/16 00:36:44;;;;;;;14.70;10.90;;;;;;;12.27;50.27;102957.00;6339349;22;20021;-68
2022/04/16 00:39:11;;;;;;;14.73;11.25;;;;;;;12.22;50.40;102953.63;6339056;22;20015;-68
2022/04/16 00:41:39;;;;;;;14.32;11.43;;;;;;;12.17;50.31;102952.97;6338857;22;20011;-68
2022/04/16 00:44:06;;;;;;;13.73;11.68;;;;;;;12.11;50.36;102954.09;6338400;22;20015;-68
2022/04/16 00:46:33;;;;;;;17.33;12.23;;;;;;;12.07;50.51;102952.47;6337852;22;20500;-68
2022/04/16 00:49:02;;;;;;;16.40;12.73;;;;;;;12.05;50.69;102952.56;6339241;22;20019;-68
2022/04/16 00:51:31;;;;;;;14.73;12.27;;;;;;;12.03;50.75;102950.88;6285004;22;20044;-68
2022/04/16 00:53:58;;;;;;;14.98;12.70;;;;;;;12.01;50.71;102948.25;6338624;22;20029;-68
2022/04/16 00:56:24;;;;;;;15.73;13.18;;;;;;;11.98;50.88;102943.00;6338760;22;20329;-68
2022/04/16 00:58:51;;;;;;;17.67;13.50;;;;;;;11.98;51.01;102950.19;6338805;22;20463;-68
2022/04/16 01:01:17;;;;;;;19.25;14.45;;;;;;;11.96;50.95;102944.00;6337997;22;20018;-68
2022/04/16 01:03:46;;;;;;;19.88;14.45;;;;;;;11.95;51.12;102947.63;6338855;22;20019;-68
2022/04/16 01:06:15;;;;;;;21.05;14.20;;;;;;;11.93;51.26;102944.13;6338616;22;20010;-68
2022/04/16 01:08:44;;;;;;;17.60;15.05;;;;;;;11.92;51.19;102950.47;6311422;22;20098;-68
2022/04/16 01:11:12;;;;;;;19.38;14.57;;;;;;;11.90;51.46;102953.22;6338223;22;20025;-68
2022/04/16 01:13:45;;;;;;;19.00;14.90;;;;;;;11.89;51.56;102950.56;6310732;22;20395;-67
2022/04/16 01:16:12;;;;;;;19.05;14.63;;;;;;;11.88;51.54;102951.50;6338376;22;20011;-68
2022/04/16 01:18:49;;;;;;;17.90;14.60;;;;;;;11.88;51.66;102959.59;6338546;22;20015;-68
2022/04/16 01:21:15;;;;;;;18.30;14.32;;;;;;;11.87;51.60;102958.72;6338659;22;20093;-68
2022/04/16 01:23:42;;;;;;;19.95;15.52;;;;;;;11.87;51.81;102964.09;6338542;22;20086;-68
2022/04/16 01:26:09;;;;;;;17.27;14.57;;;;;;;11.86;51.75;102965.03;6339013;22;20011;-68
2022/04/16 01:28:36;;;;;;;18.77;14.07;;;;;;;11.86;51.86;102967.72;6337485;22;20032;-68
2022/04/16 01:31:02;;;;;;;21.00;15.55;;;;;;;11.85;51.79;102965.97;6337903;22;20015;-68
2022/04/16 01:33:30;;;;;;;18.70;15.40;;;;;;;11.85;51.68;102967.78;6338460;22;20015;-68
2022/04/16 01:35:56;;;;;;;19.33;14.73;;;;;;;11.85;51.80;102967.78;6338812;22;20310;-68
2022/04/16 01:38:25;;;;;;;17.60;14.38;;;;;;;11.83;51.69;102966.97;6310746;22;20345;-68
2022/04/16 01:40:59;;;;;;;20.27;15.07;;;;;;;11.81;52.06;102974.25;6338296;22;20023;-68
2022/04/16 01:43:29;;;;;;;17.98;14.15;;;;;;;11.81;51.84;102972.44;6339251;22;20154;-68
2022/04/16 01:45:56;;;;;;;18.92;14.93;;;;;;;11.82;51.94;102976.00;6337645;22;20011;-68
2022/04/16 01:48:27;;;;;;;19.48;14.73;;;;;;;11.79;51.81;102985.06;6311008;22;20022;-67
2022/04/16 01:50:54;;;;;;;18.48;14.60;;;;;;;11.76;51.83;102986.06;6337954;22;20089;-68
2022/04/16 01:53:21;;;;;;;19.92;15.27;;;;;;;11.75;51.84;102983.41;6338675;22;20400;-68
2022/04/16 01:55:48;;;;;;;20.25;15.70;;;;;;;11.74;52.07;102976.28;6338161;22;20464;-69
2022/04/16 01:58:15;;;;;;;20.10;15.13;;;;;;;11.73;52.05;102974.53;6339831;22;20007;-68
2022/04/16 02:00:47;;;;;;;18.42;15.05;;;;;;;11.71;52.30;102979.09;6339670;22;20011;-69
2022/04/16 02:03:14;;;;;;;21.00;15.23;;;;;;;11.69;52.13;102979.16;6340400;22;20042;-68
2022/04/16 02:05:41;;;;;;;20.25;15.38;;;;;;;11.68;52.09;102982.81;6312435;22;20060;-69
2022/04/16 02:08:09;;;;;;;18.55;14.77;;;;;;;11.66;52.13;102979.31;6340502;22;20448;-69
2022/04/16 02:10:35;;;;;;;18.25;14.98;;;;;;;11.65;52.38;102982.06;6340232;22;20086;-68
2022/04/16 02:13:02;;;;;;;21.45;16.67;;;;;;;11.62;52.35;102974.97;6340308;22;20085;-68
2022/04/16 02:15:29;;;;;;;19.40;14.35;;;;;;;11.61;52.09;102975.06;6340013;22;20015;-68
2022/04/16 02:17:56;;;;;;;18.90;14.38;;;;;;;11.59;52.23;102976.94;6340216;22;20314;-68
2022/04/16 02:20:23;;;;;;;21.23;16.23;;;;;;;11.57;52.29;102979.69;6312506;22;20088;-68
2022/04/16 02:22:52;;;;;;;21.20;16.50;;;;;;;11.54;52.10;102971.72;6313074;22;20011;-68
2022/04/16 02:25:19;;;;;;;21.50;16.15;;;;;;;11.54;52.26;102978.94;6340073;22;20089;-68
2022/04/16 02:27:46;;;;;;;19.92;14.68;;;;;;;11.52;52.15;102980.81;6338846;22;20015;-69
2022/04/16 02:30:15;;;;;;;23.25;15.10;;;;;;;11.51;52.35;102979.06;6340103;22;20384;-68
2022/04/16 02:32:48;;;;;;;19.33;14.68;;;;;;;11.48;52.42;102977.38;6340066;22;20011;-69
2022/04/16 02:35:16;;;;;;;22.60;15.55;;;;;;;11.46;52.41;102977.44;6312807;22;20023;-69
2022/04/16 02:37:44;;;;;;;19.58;15.05;;;;;;;11.45;52.39;102975.69;6313218;22;20484;-68
2022/04/16 02:40:12;;;;;;;19.73;16.38;;;;;;;11.43;52.47;102976.69;6312501;22;20017;-68
2022/04/16 02:42:40;;;;;;;19.85;15.07;;;;;;;11.40;52.42;102977.69;6339347;22;20094;-68
2022/04/16 02:47:55;;;;;;;21.55;15.20;;;;;;;11.34;52.62;102982.44;6340569;22;20089;-69
2022/04/16 02:50:25;;;;;;;21.05;16.08;;;;;;;11.31;52.58;102983.44;6339956;22;20011;-68
2022/04/16 02:52:53;;;;;;;20.58;15.88;;;;;;;11.29;52.61;102985.31;6339866;22;20098;-68
2022/04/16 02:55:19;;;;;;;24.42;15.43;;;;;;;11.26;52.58;102985.44;6339844;22;20025;-68
2022/04/16 02:57:46;;;;;;;21.63;15.73;;;;;;;11.23;52.49;102990.94;6340300;22;20011;-68
2022/04/16 03:00:14;;;;;;;18.23;15.43;;;;;;;11.18;52.61;102992.94;6339871;22;20011;-68
2022/04/16 03:02:41;;;;;;;23.38;15.95;;;;;;;11.13;52.71;102993.09;6340309;22;20321;-68
2022/04/16 03:05:08;;;;;;;18.58;15.57;;;;;;;11.09;52.70;103001.34;6340208;22;20022;-68
2022/04/16 03:07:36;;;;;;;21.88;16.63;;;;;;;11.05;52.80;102997.00;6339787;22;20070;-68
2022/04/16 03:10:04;;;;;;;19.83;16.67;;;;;;;11.01;52.97;103003.44;6312142;22;20042;-68
2022/04/16 03:12:45;;;;;;;21.10;16.60;;;;;;;10.97;53.02;103002.69;6312239;22;20336;-68
2022/04/16 03:17:59;;;;;;;21.52;15.80;;;;;;;10.95;53.23;103004.56;6339832;22;20068;-68
2022/04/16 03:20:27;;;;;;;22.35;16.17;;;;;;;10.93;53.22;103005.53;6339615;22;20486;-68
2022/04/16 03:22:54;;;;;;;22.50;17.08;;;;;;;10.92;53.37;103004.66;6339695;22;20010;-69
2022/04/16 03:25:20;;;;;;;20.73;16.98;;;;;;;10.92;53.32;103003.78;6340141;22;20019;-68
2022/04/16 03:27:47;;;;;;;21.95;16.42;;;;;;;10.91;53.28;103005.59;6339886;22;20037;-68
2022/04/16 03:30:14;;;;;;;22.42;17.13;;;;;;;10.87;53.45;103003.97;6339534;22;20345;-68
2022/04/16 03:32:41;;;;;;;22.60;17.20;;;;;;;10.87;53.51;103000.41;6339774;22;20011;-68
2022/04/16 03:35:09;;;;;;;24.23;17.55;;;;;;;10.86;53.63;103010.28;6339816;22;20019;-68
2022/04/16 03:37:36;;;;;;;22.92;17.70;;;;;;;10.83;53.68;103007.72;6338510;22;20106;-68
2022/04/16 03:40:05;;;;;;;20.70;16.58;;;;;;;10.81;53.72;103002.38;6312068;22;20445;-68
2022/04/16 03:42:32;;;;;;;22.55;16.38;;;;;;;10.81;53.58;103006.88;6340147;22;20011;-68
2022/04/16 03:45:00;;;;;;;24.30;18.15;;;;;;;10.82;53.69;103005.94;6339791;22;20019;-68
2022/04/16 03:47:27;;;;;;;24.42;17.92;;;;;;;10.83;53.85;103011.28;6339666;22;20010;-68
2022/04/16 03:49:55;;;;;;;23.60;17.85;;;;;;;10.82;53.82;103005.94;6340440;22;20343;-68
2022/04/16 03:52:21;;;;;;;21.08;17.48;;;;;;;10.83;53.71;103005.91;6339065;22;20090;-68
2022/04/16 04:00:18;;;;;;;22.60;17.33;;;;;;;10.75;53.72;103016.06;6339559;22;20460;-67
2022/04/16 04:02:45;;;;;;;24.38;18.00;;;;;;;10.72;53.72;103017.97;6339583;22;20498;-67
2022/04/16 04:05:11;;;;;;;25.85;17.73;;;;;;;10.68;53.73;103008.28;6339834;22;20019;-68
2022/04/16 04:07:38;;;;;;;26.58;18.75;;;;;;;10.67;53.88;103011.91;6339868;22;20333;-67
2022/04/16 04:10:05;;;;;;;30.45;19.02;;;;;;;10.67;53.94;103014.59;6339323;22;20007;-67
2022/04/16 04:12:32;;;;;;;26.85;19.10;;;;;;;10.66;54.02;103012.84;6312230;22;20365;-67
2022/04/16 04:14:59;;;;;;;26.27;19.20;;;;;;;10.65;54.04;103024.53;6339299;22;20392;-67
2022/04/16 04:17:26;;;;;;;27.00;19.00;;;;;;;10.62;54.09;103022.81;6312191;22;20352;-67
2022/04/16 04:19:52;;;;;;;25.92;18.48;;;;;;;10.60;54.13;103022.00;6285363;22;20090;-67
2022/04/16 04:22:19;;;;;;;24.48;18.75;;;;;;;10.59;54.23;103024.75;6339143;22;20015;-66
2022/04/16 04:24:46;;;;;;;26.23;19.75;;;;;;;10.58;54.29;103028.38;6311777;22;20399;-67
2022/04/16 04:27:12;;;;;;;24.98;18.98;;;;;;;10.57;54.28;103019.44;6339549;22;20017;-67
2022/04/16 04:29:39;;;;;;;26.75;19.20;;;;;;;10.54;54.24;103024.03;6339191;22;20041;-67
2022/04/16 04:32:06;;;;;;;24.70;19.23;;;;;;;10.52;54.40;103023.22;6339547;22;20045;-68
2022/04/16 04:34:33;;;;;;;24.75;18.83;;;;;;;10.48;54.48;103030.50;6338653;22;20021;-67
2022/04/16 04:37:00;;;;;;;25.55;19.83;;;;;;;10.47;54.57;103035.00;6339408;22;20029;-67
2022/04/16 04:39:28;;;;;;;27.63;20.45;;;;;;;10.47;54.67;103029.63;6338993;22;20025;-67
2022/04/16 04:41:54;;;;;;;27.23;19.90;;;;;;;10.48;54.88;103041.25;6339001;22;20011;-67
2022/04/16 04:44:21;;;;;;;29.30;20.23;;;;;;;10.46;54.51;103040.44;6339549;22;20068;-66
2022/04/16 04:46:52;;;;;;;26.63;20.45;;;;;;;10.44;54.96;103037.78;6339279;22;20042;-66
2022/04/16 04:49:19;;;;;;;31.40;21.10;;;;;;;10.44;54.90;103048.53;6339280;22;20098;-67
2022/04/16 04:51:45;;;;;;;28.00;19.85;;;;;;;10.43;55.00;103049.47;6339217;22;20014;-69
2022/04/16 04:54:12;;;;;;;30.20;21.48;;;;;;;10.43;55.13;103051.28;6286276;22;20018;-69
2022/04/16 04:56:39;;;;;;;32.40;21.92;;;;;;;10.41;55.06;103048.66;6339092;22;20019;-70
2022/04/16 04:59:05;;;;;;;32.78;21.92;;;;;;;10.41;55.24;103053.16;6338525;22;20113;-68
2022/04/16 05:01:32;;;;;;;30.42;22.23;;;;;;;10.38;55.27;103054.09;6338636;22;20018;-68
2022/04/16 05:03:59;;;;;;;30.52;22.13;;;;;;;10.38;55.36;103062.16;6339083;22;20109;-69
2022/04/16 05:06:25;;;;;;;29.55;22.15;;;;;;;10.37;55.45;103060.41;6311359;22;20046;-69
2022/04/16 05:08:52;;;;;;;30.92;22.85;;;;;;;10.36;55.48;103065.81;6339147;22;20443;-69
2022/04/16 05:11:19;;;;;;;29.38;21.80;;;;;;;10.38;55.57;103072.03;6338979;22;20036;-68
2022/04/16 05:13:45;;;;;;;36.03;23.27;;;;;;;10.38;55.71;103072.03;6338369;22;20341;-69
2022/04/16 05:16:13;;;;;;;31.10;22.45;;;;;;;10.38;55.75;103074.72;6338644;22;20025;-70
2022/04/16 05:18:41;;;;;;;30.27;22.02;;;;;;;10.40;55.78;103073.75;6311476;22;20026;-69
2022/04/16 05:21:08;;;;;;;33.58;23.17;;;;;;;10.42;55.65;103081.75;6339213;22;20014;-68
2022/04/16 05:23:39;;;;;;;32.53;22.85;;;;;;;10.42;55.87;103077.28;6338939;22;20090;-69
2022/04/16 05:26:11;;;;;;;30.33;23.13;;;;;;;10.44;56.08;103087.97;6338629;22;20014;-68
2022/04/16 05:28:39;;;;;;;32.58;22.15;;;;;;;10.45;56.02;103087.91;6339045;22;20341;-69
2022/04/16 05:31:06;;;;;;;33.83;23.75;;;;;;;10.46;56.21;103083.41;6338725;22;20345;-67
2022/04/16 05:36:18;;;;;;;34.72;23.77;;;;;;;10.52;56.29;103095.75;6340928;22;20097;-68
2022/04/16 05:38:45;;;;;;;34.10;23.70;;;;;;;10.54;56.27;103097.47;6340871;22;20036;-68
2022/04/16 05:41:12;;;;;;;31.50;23.58;;;;;;;10.57;56.35;103100.03;6340469;22;20017;-67
2022/04/16 05:43:38;;;;;;;32.00;24.08;;;;;;;10.60;56.52;103102.63;6340959;22;20031;-68
2022/04/16 05:46:05;;;;;;;31.90;24.15;;;;;;;10.64;56.57;103100.69;6341152;22;20014;-67
2022/04/16 05:48:31;;;;;;;34.22;25.15;;;;;;;10.66;56.69;103105.09;6340131;22;20014;-67
2022/04/16 05:50:58;;;;;;;34.75;25.02;;;;;;;10.68;56.66;103108.59;6340970;22;20090;-68
2022/04/16 05:53:25;;;;;;;36.70;24.75;;;;;;;10.71;56.83;103107.59;6340610;22;20011;-67
2022/04/16 05:55:52;;;;;;;31.90;23.23;;;;;;;10.72;56.64;103103.97;6313498;22;20053;-67
2022/04/16 05:58:18;;;;;;;36.15;25.10;;;;;;;10.76;56.88;103117.25;6340869;22;20022;-67
2022/04/16 06:00:45;;;;;;;34.58;23.92;;;;;;;10.78;57.00;103118.09;6340619;22;20031;-67
2022/04/16 06:03:17;;;;;;;33.92;24.00;;;;;;;10.82;57.09;103116.16;6314881;22;20011;-68
2022/04/16 06:05:44;;;;;;;35.47;24.83;;;;;;;10.87;57.08;103121.38;6340908;22;20015;-68
2022/04/16 06:08:10;;;;;;;38.13;25.65;;;;;;;10.92;57.27;103124.78;6339855;22;20015;-67
2022/04/16 06:10:37;;;;;;;35.22;25.15;;;;;;;10.96;57.35;103126.41;6340130;22;20085;-68
2022/04/16 06:13:09;;;;;;;39.22;26.10;;;;;;;11.01;57.29;103128.00;6340424;22;20336;-68
2022/04/16 06:15:39;;;;;;;35.67;25.73;;;;;;;11.05;57.31;103129.66;6340287;22;20015;-68
2022/04/16 06:18:05;;;;;;;36.78;26.45;;;;;;;11.10;57.60;103130.34;6340501;22;20018;-67
2022/04/16 06:20:32;;;;;;;32.75;24.48;;;;;;;11.16;57.63;103137.34;6287092;22;20106;-67
2022/04/16 06:22:58;;;;;;;34.95;24.77;;;;;;;11.23;57.57;103135.31;6338203;22;20029;-67
2022/04/16 06:25:25;;;;;;;36.22;25.35;;;;;;;11.31;57.65;103147.53;6339739;22;20102;-67
2022/04/16 06:27:51;;;;;;;37.10;26.45;;;;;;;11.39;57.66;103140.03;6339637;22;20041;-68
2022/04/16 06:30:18;;;;;;;33.53;24.70;;;;;;;11.51;57.90;103145.91;6340112;22;20302;-69
2022/04/16 06:32:46;;;;;;;36.97;25.23;;;;;;;11.63;57.85;103150.81;6340275;22;20417;-69
2022/04/16 06:35:13;;;;;;;33.90;25.00;;;;;;;11.74;57.96;103153.94;6340351;22;20459;-68
2022/04/16 06:37:43;;;;;;;32.80;24.45;;;;;;;11.86;57.93;103150.81;6313040;22;20445;-68
2022/04/16 06:40:12;;;;;;;35.33;24.38;;;;;;;11.99;57.99;103157.50;6339848;22;20445;-68
2022/04/16 06:42:40;;;;;;;33.22;24.38;;;;;;;12.12;57.88;103157.00;6339638;22;20064;-67
2022/04/16 06:45:10;;;;;;;35.50;24.90;;;;;;;12.24;57.87;103151.09;6340214;22;20056;-67
2022/04/16 06:47:36;;;;;;;31.88;23.50;;;;;;;12.37;57.61;103149.66;6312785;22;20379;-67
2022/04/16 06:50:05;;;;;;;30.58;23.05;;;;;;;12.51;57.80;103155.31;6339655;22;20448;-68
2022/04/16 06:52:31;;;;;;;34.58;23.95;;;;;;;12.63;57.75;103162.00;6340086;22;20098;-67
2022/04/16 06:54:58;;;;;;;35.30;23.98;;;;;;;12.75;57.77;103168.72;6340108;22;20015;-67
2022/04/16 06:57:25;;;;;;;30.67;23.55;;;;;;;12.88;57.62;103157.34;6312225;22;20402;-68
2022/04/16 06:59:57;;;;;;;31.17;23.58;;;;;;;13.00;57.42;103162.19;6340271;22;20021;-67
2022/04/16 07:02:24;;;;;;;31.20;23.15;;;;;;;13.13;57.60;103157.13;6339477;22;20017;-68
2022/04/16 07:04:59;;;;;;;31.73;22.25;;;;;;;13.27;57.50;103148.44;6311978;22;20019;-67
2022/04/16 07:07:25;;;;;;;30.02;22.83;;;;;;;13.38;57.24;103146.16;6340273;22;20089;-63
2022/04/16 07:09:52;;;;;;;28.95;23.08;;;;;;;13.48;57.16;103155.56;6312011;22;20106;-63
2022/04/16 07:12:18;;;;;;;29.67;22.08;;;;;;;13.55;57.29;103162.44;6340128;22;20076;-63
2022/04/16 07:14:45;;;;;;;28.48;22.13;;;;;;;13.65;57.32;103149.38;6339928;22;20110;-63
2022/04/16 07:17:18;;;;;;;28.63;20.85;;;;;;;13.81;57.26;103155.78;6339505;22;20018;-64
2022/04/16 07:19:45;;;;;;;28.40;21.90;;;;;;;13.92;56.97;103158.84;6339769;22;20038;-64
2022/04/16 07:22:11;;;;;;;25.75;20.92;;;;;;;14.03;56.70;103161.03;6339849;22;20011;-63
2022/04/16 07:24:38;;;;;;;26.40;20.20;;;;;;;14.21;56.59;103161.97;6339974;22;20011;-64
2022/04/16 07:27:06;;;;;;;27.67;20.70;;;;;;;14.39;56.53;103154.78;6340146;22;20011;-63
2022/04/16 07:29:32;;;;;;;26.27;20.63;;;;;;;14.54;56.66;103162.13;6339542;22;20467;-64
2022/04/16 07:31:59;;;;;;;25.92;20.27;;;;;;;14.68;56.35;103158.72;6340067;22;20021;-63
2022/04/16 07:34:27;;;;;;;28.17;21.13;;;;;;;14.79;55.87;103156.34;6339673;22;20018;-63
2022/04/16 07:36:53;;;;;;;26.42;20.73;;;;;;;14.92;55.71;103146.66;6340079;22;20333;-62
2022/04/16 07:39:20;;;;;;;25.17;20.25;;;;;;;15.02;55.53;103147.91;6339747;22;20035;-63
2022/04/16 07:41:49;;;;;;;25.50;19.33;;;;;;;15.16;55.66;103158.88;6311756;22;20015;-62
2022/04/16 07:44:17;;;;;;;25.75;19.65;;;;;;;15.33;55.31;103149.84;6339541;22;20021;-61
2022/04/16 07:46:43;;;;;;;24.42;18.98;;;;;;;15.45;55.02;103153.72;6339631;22;20341;-63
2022/04/16 07:49:10;;;;;;;23.73;17.70;;;;;;;15.56;54.88;103149.44;6339695;22;20015;-63
2022/04/16 07:51:37;;;;;;;22.23;16.33;;;;;;;15.70;54.72;103151.44;6339659;22;20340;-63
2022/04/16 07:54:04;;;;;;;21.88;16.67;;;;;;;15.82;54.27;103158.88;6339218;22;20011;-63
2022/04/16 07:56:30;;;;;;;20.98;16.58;;;;;;;15.95;53.95;103155.47;6339619;22;20176;-62
2022/04/16 07:58:57;;;;;;;20.33;16.27;;;;;;;16.09;53.94;103155.56;6311695;22;20049;-62
2022/04/16 08:01:23;;;;;;;22.20;16.35;;;;;;;16.34;53.78;103155.00;6339483;22;20088;-63
2022/04/16 08:03:50;;;;;;;19.63;16.42;;;;;;;16.52;53.46;103154.81;6312058;22;20484;-62
2022/04/16 08:06:17;;;;;;;21.30;16.85;;;;;;;16.68;53.01;103153.94;6312312;22;20330;-62
2022/04/16 08:08:43;;;;;;;18.38;15.02;;;;;;;16.83;52.86;103156.59;6312062;22;20348;-62
2022/04/16 08:11:11;;;;;;;19.73;15.15;;;;;;;17.01;52.46;103156.44;6339314;22;20011;-65
2022/04/16 08:13:38;;;;;;;18.83;14.50;;;;;;;17.17;52.26;103159.97;6311926;22;20365;-64
2022/04/16 08:16:05;;;;;;;16.70;14.43;;;;;;;17.33;52.26;103157.16;6311675;22;20383;-65
2022/04/16 08:18:32;;;;;;;18.58;14.90;;;;;;;17.43;51.59;103158.34;6339456;22;20056;-65
2022/04/16 08:20:59;;;;;;;19.10;14.77;;;;;;;17.48;51.55;103162.50;6339220;22;20007;-63
2022/04/16 08:23:26;;;;;;;17.40;15.05;;;;;;;17.52;50.81;103160.47;6286247;22;20549;-62
2022/04/16 08:25:54;;;;;;;21.02;14.48;;;;;;;17.62;51.19;103161.63;6339440;22;20432;-62
2022/04/16 08:28:21;;;;;;;19.15;14.02;;;;;;;17.74;50.91;103160.84;6311930;22;20429;-63
2022/04/16 08:30:49;;;;;;;19.00;14.65;;;;;;;17.76;50.53;103161.63;6338937;22;20014;-63
2022/04/16 08:33:16;;;;;;;19.50;13.32;;;;;;;17.83;50.60;103163.94;6339310;22;20480;-63
2022/04/16 08:35:44;;;;;;;15.27;12.27;;;;;;;17.91;50.17;103169.78;6311667;22;20467;-63
2022/04/16 08:38:12;;;;;;;17.83;13.95;;;;;;;17.98;49.84;103169.28;6311879;22;20515;-62
2022/04/16 08:40:39;;;;;;;17.58;14.18;;;;;;;18.02;49.32;103165.41;6339386;22;20036;-66
2022/04/16 08:43:12;;;;;;;16.88;13.85;;;;;;;18.03;48.99;103164.41;6339541;22;20046;-64
2022/04/16 08:45:40;;;;;;;17.55;13.35;;;;;;;18.02;48.76;103167.25;6339434;22;20041;-65
2022/04/16 08:48:06;;;;;;;15.70;13.27;;;;;;;18.06;49.21;103166.06;6311714;22;20085;-65
2022/04/16 08:50:33;;;;;;;16.45;13.75;;;;;;;18.15;48.55;103165.47;6339257;22;20015;-66
2022/04/16 08:53:01;;;;;;;15.52;12.80;;;;;;;18.21;48.73;103172.34;6339220;22;20436;-66
2022/04/16 08:55:28;;;;;;;17.90;12.63;;;;;;;18.33;48.48;103172.38;6337495;22;20021;-65
2022/04/16 08:57:56;;;;;;;14.93;12.25;;;;;;;18.49;48.80;103172.22;6338814;22;20101;-66
2022/04/16 09:00:23;;;;;;;16.38;13.15;;;;;;;18.69;48.53;103171.81;6338877;22;20090;-64
2022/04/16 09:02:56;;;;;;;14.50;12.45;;;;;;;18.79;48.32;103172.03;6339248;22;20010;-65
2022/04/16 09:05:28;;;;;;;13.30;11.30;;;;;;;18.87;47.93;103175.09;6339504;22;20079;-66
2022/04/16 09:07:56;;;;;;;13.30;10.55;;;;;;;18.98;47.36;103166.19;6311420;22;20018;-66
2022/04/16 09:10:31;;;;;;;14.40;10.43;;;;;;;19.07;47.41;103165.53;6311390;22;20094;-66
2022/04/16 09:13:00;;;;;;;12.50;10.15;;;;;;;19.14;46.67;103164.13;6339347;22;20468;-65
2022/04/16 09:15:28;;;;;;;12.60;9.95;;;;;;;19.17;46.62;103165.75;6339177;22;20042;-66
2022/04/16 09:18:03;;;;;;;13.20;10.23;;;;;;;19.16;45.99;103164.00;6338985;22;20076;-66
2022/04/16 09:20:32;;;;;;;13.27;10.57;;;;;;;19.19;45.97;103164.66;6339064;22;20046;-66
2022/04/16 09:23:00;;;;;;;11.05;8.85;;;;;;;19.24;45.89;103158.91;6311717;22;20433;-66
2022/04/16 09:25:30;;;;;;;11.82;9.52;;;;;;;19.34;45.90;103162.75;6338999;22;20035;-66
2022/04/16 09:27:58;;;;;;;10.88;9.23;;;;;;;19.44;45.52;103162.94;6339355;22;20019;-66
2022/04/16 09:30:31;;;;;;;11.70;8.90;;;;;;;19.49;45.10;103160.75;6338375;22;20341;-66
2022/04/16 09:32:59;;;;;;;10.50;8.93;;;;;;;19.57;45.40;103161.97;6339151;22;20068;-65
2022/04/16 09:35:26;;;;;;;11.38;8.65;;;;;;;19.67;44.99;103157.59;6338540;22;20437;-66
2022/04/16 09:38:12;;;;;;;9.43;8.32;;;;;;;19.77;44.35;103155.06;6338971;22;20011;-66
2022/04/16 09:40:38;;;;;;;10.73;8.52;;;;;;;19.86;44.25;103154.38;6338795;22;20081;-66
2022/04/16 09:43:07;;;;;;;8.60;7.60;;;;;;;19.96;43.81;103150.00;6338821;22;20441;-66
2022/04/16 09:45:37;;;;;;;11.40;7.57;;;;;;;20.02;43.70;103145.94;6338971;22;20341;-64
2022/04/16 09:48:11;;;;;;;10.18;7.82;;;;;;;20.11;43.49;103149.88;6285766;22;20056;-65
2022/04/16 09:50:41;;;;;;;8.02;6.40;;;;;;;20.17;43.02;103152.13;6338637;22;20015;-65
2022/04/16 09:53:09;;;;;;;8.93;7.15;;;;;;;20.24;42.66;103142.50;6311504;22;20017;-64
2022/04/16 09:55:36;;;;;;;8.38;6.30;;;;;;;20.26;42.54;103140.53;6337638;22;20015;-64
2022/04/16 09:58:05;;;;;;;9.48;6.85;;;;;;;20.27;41.95;103142.25;6339126;22;20089;-65
2022/04/16 10:00:34;;;;;;;8.10;6.28;;;;;;;20.33;42.12;103140.91;6338394;22;20022;-67
2022/04/16 10:03:21;;;;;;;7.60;5.97;;;;;;;20.40;41.48;103139.50;6338647;22;20394;-65
2022/04/16 10:05:48;;;;;;;6.43;4.70;;;;;;;20.46;41.13;103139.03;6338819;22;20348;-64
2022/04/16 10:08:15;;;;;;;5.40;4.63;;;;;;;20.50;40.66;103138.66;6339010;22;20321;-65
2022/04/16 10:10:51;;;;;;;5.15;4.30;;;;;;;20.58;41.05;103140.81;6338778;22;20015;-65
2022/04/16 10:13:20;;;;;;;6.70;4.07;;;;;;;20.66;40.19;103142.94;6339127;22;20329;-64
2022/04/16 10:16:21;;;;;;;5.90;5.25;;;;;;;20.73;39.75;103127.81;6339063;22;20011;-64
2022/04/16 10:18:49;;;;;;;5.47;4.97;;;;;;;20.78;39.46;103140.13;6340350;22;20056;-66
2022/04/16 10:21:17;;;;;;;11.32;5.35;;;;;;;20.80;39.48;103123.63;6340511;22;20060;-65
2022/04/16 10:23:44;;;;;;;8.15;6.18;;;;;;;20.84;39.59;103116.97;6340750;22;20060;-66
2022/04/16 10:26:13;;;;;;;7.05;5.80;;;;;;;20.84;39.48;103114.22;6340247;22;20019;-66
2022/04/16 10:28:59;;;;;;;6.60;5.90;;;;;;;20.81;39.03;103119.94;6340417;22;20007;-67
2022/04/16 10:31:30;;;;;;;7.65;6.43;;;;;;;20.79;39.50;103121.88;6313146;22;20490;-66
2022/04/16 10:34:00;;;;;;;7.88;6.40;;;;;;;20.75;39.14;103124.00;6340311;22;20380;-66
2022/04/16 10:36:32;;;;;;;9.30;6.20;;;;;;;20.68;39.03;103130.91;6340186;22;20011;-66
2022/04/16 10:39:00;;;;;;;7.25;5.10;;;;;;;20.67;38.70;103131.91;6339998;22;20015;-66
2022/04/16 10:41:28;;;;;;;7.68;5.60;;;;;;;20.68;38.91;103130.03;6340233;22;20011;-65
2022/04/16 10:43:59;;;;;;;6.63;5.38;;;;;;;20.66;38.72;103127.44;6340597;22;20015;-66
2022/04/16 10:46:48;;;;;;;7.22;5.40;;;;;;;20.62;38.21;103118.63;6340343;22;20504;-66
2022/04/16 10:49:24;;;;;;;8.00;5.60;;;;;;;20.67;38.44;103120.97;6340408;22;20007;-66
2022/04/16 10:51:52;;;;;;;6.18;5.22;;;;;;;20.76;38.51;103120.25;6312601;22;20374;-66
2022/04/16 10:54:28;;;;;;;6.28;4.65;;;;;;;20.87;38.02;103120.31;6340244;22;20008;-66
2022/04/16 10:56:54;;;;;;;6.60;5.32;;;;;;;21.02;38.11;103115.50;6341881;22;20425;-67
2022/04/16 10:59:39;;;;;;;7.45;5.78;;;;;;;21.18;38.05;103131.53;6314015;22;20433;-66
2022/04/16 11:02:26;;;;;;;6.82;5.97;;;;;;;21.21;37.74;103121.22;6313143;22;20038;-66
2022/04/16 11:05:08;;;;;;;7.38;5.93;;;;;;;21.30;37.73;103122.38;6312886;22;20018;-66
2022/04/16 11:07:39;;;;;;;7.70;5.05;;;;;;;21.39;37.56;103118.03;6344184;22;20015;-66
2022/04/16 11:10:11;;;;;;;7.78;6.43;;;;;;;21.42;37.74;103117.78;6342705;22;20019;-66
2022/04/16 11:12:41;;;;;;;6.75;5.38;;;;;;;21.46;37.30;103122.88;6340863;22;20385;-67
2022/04/16 11:15:13;;;;;;;7.03;5.57;;;;;;;21.46;37.30;103124.75;6340231;22;20034;-66
2022/04/16 11:17:41;;;;;;;6.70;5.30;;;;;;;21.41;37.11;103124.25;6314315;22;20472;-66
2022/04/16 11:20:08;;;;;;;7.00;5.25;;;;;;;21.37;36.84;103118.16;6340146;22;20014;-65
2022/04/16 11:22:38;;;;;;;9.00;5.32;;;;;;;21.38;36.72;103119.03;6340075;22;20073;-67
2022/04/16 11:25:06;;;;;;;7.63;5.57;;;;;;;21.44;36.67;103122.13;6339865;22;20039;-66
2022/04/16 11:35:55;;;;;;;5.30;4.38;;;;;;;21.80;36.11;103101.00;6339902;22;20018;-67
2022/04/16 11:38:33;;;;;;;5.35;4.32;;;;;;;21.83;35.80;103098.88;6339784;22;20504;-65
2022/04/16 11:41:01;;;;;;;4.43;3.83;;;;;;;21.87;35.88;103096.75;6312674;22;20370;-67